createdAt,value
2017-12-17T00:02:09.194Z,3.40
2017-12-17T00:04:37.831Z,2.57
2017-12-17T00:07:06.154Z,2.77
2017-12-17T00:09:34.522Z,3.00
2017-12-17T00:12:03.152Z,2.80
2017-12-17T00:14:31.854Z,2.57
2017-12-17T00:17:00.660Z,2.87
2017-12-17T00:19:28.983Z,2.50
2017-12-17T00:21:57.606Z,2.73
2017-12-17T00:24:25.991Z,2.67
2017-12-17T00:26:54.597Z,2.80
2017-12-17T00:29:23.272Z,2.80
2017-12-17T00:31:51.922Z,2.47
2017-12-17T00:34:20.558Z,2.80
2017-12-17T00:36:49.213Z,2.40
2017-12-17T00:39:17.830Z,2.60
2017-12-17T00:41:46.509Z,2.37
2017-12-17T00:44:15.157Z,2.67
2017-12-17T00:46:43.803Z,2.60
2017-12-17T00:49:12.479Z,2.30
2017-12-17T00:51:41.101Z,1.83
2017-12-17T00:54:09.788Z,2.77
2017-12-17T00:56:38.471Z,2.03
2017-12-17T00:59:07.109Z,2.90
2017-12-17T01:01:35.790Z,2.73
2017-12-17T01:04:04.505Z,2.43
2017-12-17T01:06:33.157Z,2.47
2017-12-17T01:09:08.010Z,2.53
2017-12-17T01:11:36.663Z,2.40
2017-12-17T01:14:05.352Z,2.60
2017-12-17T01:16:33.674Z,2.80
2017-12-17T01:19:02.200Z,2.13
2017-12-17T01:21:30.866Z,2.40
2017-12-17T01:23:59.544Z,2.40
2017-12-17T01:26:28.163Z,2.70
2017-12-17T01:28:56.808Z,2.40
2017-12-17T01:31:25.426Z,2.40
2017-12-17T01:33:54.086Z,2.80
2017-12-17T01:36:22.699Z,2.60
2017-12-17T01:38:51.335Z,1.97
2017-12-17T01:41:20.005Z,3.00
2017-12-17T01:43:48.354Z,2.13
2017-12-17T01:46:16.685Z,2.47
2017-12-17T01:48:45.069Z,2.40
2017-12-17T01:51:13.737Z,2.47
2017-12-17T01:53:42.101Z,2.70
2017-12-17T01:56:11.293Z,2.17
2017-12-17T01:58:39.695Z,3.10
2017-12-17T02:01:08.323Z,2.27
2017-12-17T02:03:37.074Z,2.50
2017-12-17T02:06:08.950Z,3.07
2017-12-17T02:08:37.286Z,1.83
2017-12-17T02:11:06.043Z,2.40
2017-12-17T02:13:34.682Z,2.30
2017-12-17T02:16:07.119Z,2.60
2017-12-17T02:18:35.494Z,2.37
2017-12-17T02:21:03.814Z,2.30
2017-12-17T02:23:32.188Z,2.40
2017-12-17T02:26:00.543Z,2.13
2017-12-17T02:28:29.170Z,2.00
2017-12-17T02:30:57.921Z,2.13
2017-12-17T02:33:26.254Z,2.10
2017-12-17T02:35:54.640Z,2.20
2017-12-17T02:38:23.279Z,2.00
2017-12-17T02:40:51.721Z,2.60
2017-12-17T02:43:20.056Z,1.60
2017-12-17T02:45:48.386Z,2.17
2017-12-17T02:48:16.758Z,1.90
2017-12-17T02:50:45.101Z,1.77
2017-12-17T02:53:13.493Z,1.37
2017-12-17T02:55:43.833Z,2.30
2017-12-17T02:58:12.161Z,1.83
2017-12-17T03:00:40.591Z,1.90
2017-12-17T03:03:09.330Z,1.80
2017-12-17T03:05:37.451Z,2.57
2017-12-17T03:08:05.774Z,1.90
2017-12-17T03:10:34.140Z,1.90
2017-12-17T03:13:02.471Z,1.97
2017-12-17T03:15:30.859Z,1.70
2017-12-17T03:17:59.207Z,2.17
2017-12-17T03:20:27.581Z,1.53
2017-12-17T03:22:55.962Z,1.47
2017-12-17T03:25:24.297Z,1.80
2017-12-17T03:27:52.627Z,1.90
2017-12-17T03:30:21.054Z,1.60
2017-12-17T03:32:49.464Z,2.13
2017-12-17T03:35:17.787Z,1.77
2017-12-17T03:37:46.153Z,1.80
2017-12-17T03:40:14.538Z,1.50
2017-12-17T03:42:42.889Z,1.87
2017-12-17T03:45:11.234Z,1.63
2017-12-17T03:47:39.828Z,1.70
2017-12-17T03:50:08.158Z,1.60
2017-12-17T03:52:36.538Z,1.83
2017-12-17T03:55:04.910Z,1.33
2017-12-17T03:57:33.233Z,1.17
2017-12-17T04:00:01.608Z,1.33
2017-12-17T04:02:29.941Z,1.23
2017-12-17T04:04:58.310Z,1.53
2017-12-17T04:07:26.646Z,1.40
2017-12-17T04:09:55.035Z,1.37
2017-12-17T04:12:23.166Z,1.23
2017-12-17T04:14:51.531Z,1.10
2017-12-17T04:17:20.193Z,1.40
2017-12-17T04:19:48.517Z,1.30
2017-12-17T04:22:17.220Z,1.13
2017-12-17T04:24:45.534Z,1.17
2017-12-17T04:27:13.902Z,1.00
2017-12-17T04:29:42.279Z,1.13
2017-12-17T04:32:10.606Z,1.03
2017-12-17T04:34:39.274Z,0.97
2017-12-17T04:37:07.926Z,0.90
2017-12-17T04:39:36.293Z,1.20
2017-12-17T04:42:04.666Z,0.90
2017-12-17T04:44:33.294Z,1.10
2017-12-17T04:47:01.639Z,1.00
2017-12-17T04:49:30.002Z,0.90
2017-12-17T04:51:58.319Z,0.83
2017-12-17T04:54:26.698Z,0.73
2017-12-17T04:56:55.021Z,1.43
2017-12-17T04:59:23.334Z,1.20
2017-12-17T05:01:51.700Z,1.00
2017-12-17T05:04:20.365Z,1.20
2017-12-17T05:06:48.726Z,1.10
2017-12-17T05:09:17.354Z,1.47
2017-12-17T05:11:46.023Z,1.07
2017-12-17T05:14:14.664Z,0.87
2017-12-17T05:16:43.375Z,1.20
2017-12-17T05:19:11.707Z,1.07
2017-12-17T05:21:40.038Z,1.30
2017-12-17T05:24:08.409Z,1.10
2017-12-17T05:26:36.741Z,1.23
2017-12-17T05:29:05.120Z,1.10
2017-12-17T05:31:33.795Z,1.50
2017-12-17T05:34:02.132Z,1.10
2017-12-17T05:36:30.506Z,1.40
2017-12-17T05:38:59.145Z,1.40
2017-12-17T05:41:31.577Z,1.10
2017-12-17T05:44:01.539Z,1.40
2017-12-17T05:46:32.755Z,1.40
2017-12-17T05:49:03.858Z,1.17
2017-12-17T05:51:32.309Z,1.00
2017-12-17T05:54:01.007Z,1.37
2017-12-17T05:56:30.499Z,1.00
2017-12-17T05:59:00.163Z,1.20
2017-12-17T06:01:31.004Z,1.67
2017-12-17T06:04:01.854Z,1.33
2017-12-17T06:06:30.689Z,1.77
2017-12-17T06:08:59.075Z,1.00
2017-12-17T06:11:27.706Z,1.20
2017-12-17T06:13:56.037Z,1.40
2017-12-17T06:16:24.730Z,1.70
2017-12-17T06:18:53.370Z,1.37
2017-12-17T06:21:21.757Z,1.50
2017-12-17T06:23:51.944Z,1.33
2017-12-17T06:26:22.181Z,1.30
2017-12-17T06:28:52.016Z,1.50
2017-12-17T06:31:21.130Z,1.10
2017-12-17T06:33:49.873Z,1.23
2017-12-17T06:36:19.375Z,1.57
2017-12-17T06:38:49.218Z,1.93
2017-12-17T06:41:19.033Z,1.40
2017-12-17T06:43:48.543Z,1.43
2017-12-17T06:46:18.906Z,1.70
2017-12-17T06:48:49.160Z,1.37
2017-12-17T06:51:19.843Z,1.67
2017-12-17T06:53:48.474Z,1.53
2017-12-17T06:56:19.236Z,1.80
2017-12-17T06:58:49.136Z,1.50
2017-12-17T07:01:17.682Z,1.23
2017-12-17T07:03:46.147Z,1.23
2017-12-17T07:06:15.426Z,1.20
2017-12-17T07:08:45.452Z,1.60
2017-12-17T07:11:15.377Z,1.37
2017-12-17T07:13:44.966Z,1.80
2017-12-17T07:16:15.993Z,1.83
2017-12-17T07:18:44.425Z,1.40
2017-12-17T07:21:12.802Z,1.40
2017-12-17T07:23:42.476Z,1.60
2017-12-17T07:26:19.906Z,1.53
2017-12-17T07:28:50.339Z,1.23
2017-12-17T07:31:34.643Z,2.00
2017-12-17T07:34:18.281Z,1.50
2017-12-17T07:36:59.575Z,1.37
2017-12-17T07:39:39.885Z,1.50
2017-12-17T07:42:09.086Z,2.13
2017-12-17T07:44:38.006Z,1.90
2017-12-17T07:52:37.183Z,2.20
2017-12-17T07:55:05.618Z,1.37
2017-12-17T07:57:34.490Z,1.60
2017-12-17T08:00:02.873Z,1.90
2017-12-17T08:02:31.626Z,1.67
2017-12-17T08:05:01.022Z,1.70
2017-12-17T08:07:29.356Z,1.67
2017-12-17T08:09:58.621Z,1.50
2017-12-17T08:12:27.377Z,2.17
2017-12-17T08:15:02.455Z,1.50
2017-12-17T08:17:31.264Z,1.43
2017-12-17T08:20:04.145Z,1.73
2017-12-17T08:22:32.570Z,1.53
2017-12-17T08:25:00.949Z,1.70
2017-12-17T08:27:29.322Z,2.17
2017-12-17T08:29:57.767Z,1.80
2017-12-17T08:32:26.450Z,1.63
2017-12-17T08:34:55.137Z,2.23
2017-12-17T08:37:23.479Z,1.67
2017-12-17T08:39:51.849Z,1.90
2017-12-17T08:42:20.533Z,2.03
2017-12-17T08:44:49.363Z,1.77
2017-12-17T08:47:17.776Z,1.87
2017-12-17T08:49:46.232Z,1.83
2017-12-17T08:52:14.569Z,1.97
2017-12-17T08:54:42.937Z,2.23
2017-12-17T08:57:11.672Z,1.90
2017-12-17T08:59:40.331Z,2.27
2017-12-17T09:02:11.190Z,1.80
2017-12-17T09:04:40.479Z,1.97
2017-12-17T09:07:10.575Z,1.90
2017-12-17T09:09:40.087Z,2.20
2017-12-17T09:12:09.409Z,2.37
2017-12-17T09:14:39.721Z,2.20
2017-12-17T09:17:08.474Z,2.43
2017-12-17T09:19:37.164Z,2.03
2017-12-17T09:22:06.006Z,1.90
2017-12-17T09:24:34.692Z,2.63
2017-12-17T09:27:03.013Z,2.20
2017-12-17T09:29:31.654Z,2.90
2017-12-17T09:32:00.357Z,2.43
2017-12-17T09:34:32.170Z,2.10
2017-12-17T09:37:00.814Z,2.17
2017-12-17T09:39:29.467Z,2.30
2017-12-17T09:41:58.129Z,2.20
2017-12-17T09:44:26.507Z,1.90
2017-12-17T09:46:57.230Z,2.10
2017-12-17T09:49:27.543Z,1.80
2017-12-17T09:51:55.898Z,1.90
2017-12-17T09:54:24.556Z,1.90
2017-12-17T09:56:53.245Z,2.10
2017-12-17T09:59:21.907Z,2.20
2017-12-17T10:01:50.234Z,2.77
2017-12-17T10:04:18.970Z,2.30
2017-12-17T10:06:47.627Z,2.10
2017-12-17T10:09:16.328Z,2.30
2017-12-17T10:11:45.035Z,2.30
2017-12-17T10:14:13.378Z,2.00
2017-12-17T10:16:42.273Z,2.00
2017-12-17T10:19:10.999Z,2.67
2017-12-17T10:21:39.392Z,3.17
2017-12-17T10:24:07.712Z,3.13
2017-12-17T10:26:36.385Z,2.60
2017-12-17T10:29:04.771Z,2.90
2017-12-17T10:31:33.478Z,4.00
2017-12-17T10:34:02.130Z,3.80
2017-12-17T10:36:30.804Z,3.33
2017-12-17T10:38:59.311Z,2.83
2017-12-17T10:41:28.029Z,3.37
2017-12-17T10:43:56.352Z,2.90
2017-12-17T10:46:25.191Z,2.57
2017-12-17T10:48:53.879Z,3.63
2017-12-17T10:51:22.538Z,2.50
2017-12-17T10:53:50.922Z,3.00
2017-12-17T11:00:11.161Z,1.43
2017-12-17T11:04:07.051Z,2.17
2017-12-17T11:06:36.570Z,2.10
2017-12-17T11:09:05.766Z,2.73
2017-12-17T11:11:34.220Z,2.80
2017-12-17T11:14:03.558Z,2.40
2017-12-17T11:16:32.257Z,2.33
2017-12-17T11:19:00.954Z,2.53
2017-12-17T11:21:29.713Z,2.23
2017-12-17T11:23:58.096Z,2.90
2017-12-17T11:26:26.749Z,2.50
2017-12-17T11:28:57.180Z,2.80
2017-12-17T11:31:25.891Z,2.90
2017-12-17T11:33:54.222Z,2.33
2017-12-17T11:36:22.612Z,2.67
2017-12-17T11:38:53.123Z,2.43
2017-12-17T11:41:22.137Z,2.20
2017-12-17T11:43:54.343Z,3.00
2017-12-17T11:46:23.319Z,2.50
2017-12-17T11:48:52.768Z,2.77
2017-12-17T11:51:28.660Z,2.60
2017-12-17T11:54:19.317Z,2.50
2017-12-17T11:57:00.956Z,2.30
2017-12-17T11:59:40.991Z,2.60
2017-12-17T12:02:20.189Z,2.67
2017-12-17T12:04:59.967Z,2.13
2017-12-17T12:07:39.732Z,2.00
2017-12-17T12:10:19.999Z,2.10
2017-12-17T12:13:03.181Z,2.70
2017-12-17T12:15:51.193Z,2.20
2017-12-17T12:21:27.405Z,2.00
2017-12-17T12:24:11.373Z,2.50
2017-12-17T12:26:52.851Z,2.10
2017-12-17T12:29:38.410Z,2.50
2017-12-17T12:32:24.184Z,2.20
2017-12-17T12:35:12.696Z,2.00
2017-12-17T12:38:01.811Z,2.00
2017-12-17T12:43:21.346Z,2.30
2017-12-17T12:45:59.681Z,1.70
2017-12-17T12:48:46.001Z,2.03
2017-12-17T12:51:20.554Z,1.90
2017-12-17T12:53:52.282Z,2.10
2017-12-17T12:56:25.274Z,1.80
2017-12-17T12:59:04.385Z,2.23
2017-12-17T13:01:40.851Z,2.13
2017-12-17T13:04:19.446Z,2.50
2017-12-17T13:07:00.859Z,1.90
2017-12-17T13:09:37.859Z,2.03
2017-12-17T13:12:16.468Z,2.30
2017-12-17T13:14:58.405Z,2.30
2017-12-17T13:17:36.411Z,2.37
2017-12-17T13:20:17.840Z,1.60
2017-12-17T13:23:03.272Z,2.00
2017-12-17T13:25:48.749Z,2.70
2017-12-17T13:28:30.935Z,2.27
2017-12-17T13:31:08.475Z,2.80
2017-12-17T13:33:52.358Z,2.30
2017-12-17T13:36:25.087Z,2.47
2017-12-17T13:38:54.050Z,2.60
2017-12-17T13:41:23.397Z,2.20
2017-12-17T13:43:52.687Z,2.43
2017-12-17T13:46:22.161Z,2.60
2017-12-17T13:48:53.872Z,2.27
2017-12-17T13:51:25.513Z,2.50
2017-12-17T13:53:58.149Z,2.27
2017-12-17T13:56:30.843Z,2.57
2017-12-17T13:59:02.153Z,2.67
2017-12-17T14:01:33.428Z,2.50
2017-12-17T14:04:04.618Z,2.50
2017-12-17T14:06:36.163Z,2.77
2017-12-17T14:09:07.322Z,2.27
2017-12-17T14:11:38.930Z,2.07
2017-12-17T14:14:10.064Z,2.57
2017-12-17T14:16:42.881Z,2.40
2017-12-17T14:19:14.238Z,2.00
2017-12-17T14:21:45.877Z,2.07
2017-12-17T14:24:17.192Z,2.00
2017-12-17T14:26:48.805Z,2.00
2017-12-17T14:29:20.596Z,2.07
2017-12-17T14:31:52.015Z,2.43
2017-12-17T14:34:23.342Z,2.20
2017-12-17T14:36:54.676Z,2.43
2017-12-17T14:39:26.517Z,2.30
2017-12-17T14:41:57.695Z,2.37
2017-12-17T14:44:30.124Z,2.20
2017-12-17T14:47:02.151Z,2.47
2017-12-17T14:49:34.285Z,2.57
2017-12-17T14:52:06.279Z,2.40
2017-12-17T14:54:38.746Z,2.80
2017-12-17T14:57:10.690Z,3.13
2017-12-17T14:59:43.219Z,2.60
2017-12-17T15:02:15.990Z,2.53
2017-12-17T15:04:48.316Z,2.33
2017-12-17T15:07:20.294Z,2.70
2017-12-17T15:09:52.444Z,3.20
2017-12-17T15:12:24.860Z,2.00
2017-12-17T15:14:57.050Z,2.50
2017-12-17T15:17:29.444Z,3.00
2017-12-17T15:20:01.420Z,3.23
2017-12-17T15:22:33.623Z,3.10
2017-12-17T15:25:06.163Z,2.97
2017-12-17T15:33:53.859Z,3.67
2017-12-17T15:36:27.893Z,3.20
2017-12-17T15:39:02.161Z,3.87
2017-12-17T15:41:36.166Z,2.90
2017-12-17T15:44:10.661Z,3.33
2017-12-17T15:46:44.829Z,2.60
2017-12-17T15:49:18.991Z,3.47
2017-12-17T15:51:53.214Z,3.80
2017-12-17T15:54:33.489Z,3.20
2017-12-17T15:57:08.942Z,3.23
2017-12-17T15:59:43.351Z,3.60
2017-12-17T16:02:18.412Z,4.23
2017-12-17T16:04:52.694Z,4.13
2017-12-17T16:07:26.814Z,4.70
2017-12-17T16:10:01.006Z,5.87
2017-12-17T16:12:35.610Z,5.53
2017-12-17T16:15:09.719Z,4.53
2017-12-17T16:17:43.925Z,5.87
2017-12-17T16:20:18.283Z,5.20
2017-12-17T16:22:52.421Z,5.53
2017-12-17T16:25:26.303Z,5.17
2017-12-17T16:28:00.534Z,6.00
2017-12-17T16:30:34.654Z,5.20
2017-12-17T16:33:09.186Z,6.27
2017-12-17T16:35:43.982Z,5.67
2017-12-17T16:38:18.610Z,5.60
2017-12-17T16:40:53.158Z,6.00
2017-12-17T16:43:27.404Z,6.00
2017-12-17T16:46:01.616Z,5.50
2017-12-17T16:48:35.818Z,5.10
2017-12-17T16:51:10.038Z,5.53
2017-12-17T16:53:44.251Z,5.47
2017-12-17T16:56:18.137Z,5.63
2017-12-17T16:58:52.337Z,5.43
2017-12-17T17:01:26.567Z,5.70
2017-12-17T17:04:00.735Z,5.50
2017-12-17T17:06:34.756Z,6.43
2017-12-17T17:09:09.683Z,5.63
2017-12-17T17:11:44.002Z,5.43
2017-12-17T17:14:19.334Z,6.80
2017-12-17T17:17:05.960Z,6.80
2017-12-17T17:19:41.179Z,5.97
2017-12-17T17:22:17.192Z,6.50
2017-12-17T17:24:54.552Z,7.27
2017-12-17T17:27:28.724Z,6.23
2017-12-17T17:30:03.851Z,6.83
2017-12-17T17:32:38.352Z,6.30
2017-12-17T17:35:12.723Z,6.33
2017-12-17T17:37:47.535Z,7.30
2017-12-17T17:40:21.799Z,6.33
2017-12-17T17:42:56.364Z,7.00
2017-12-17T17:45:30.319Z,7.67
2017-12-17T17:48:10.391Z,7.57
2017-12-17T17:50:45.420Z,6.33
2017-12-17T17:53:26.381Z,6.17
2017-12-17T17:56:02.901Z,5.80
2017-12-17T17:58:36.861Z,7.33
2017-12-17T18:01:11.013Z,7.00
2017-12-17T18:03:47.315Z,7.10
2017-12-17T18:06:22.091Z,6.43
2017-12-17T18:08:57.216Z,6.70
2017-12-17T18:11:31.307Z,6.97
2017-12-17T18:14:05.756Z,7.20
2017-12-17T18:16:40.782Z,6.80
2017-12-17T18:19:15.158Z,6.90
2017-12-17T18:21:49.068Z,7.37
2017-12-17T18:24:23.837Z,7.43
2017-12-17T18:26:57.814Z,7.20
2017-12-17T18:29:32.921Z,7.97
2017-12-17T18:32:07.123Z,7.50
2017-12-17T18:34:48.070Z,7.20
2017-12-17T18:37:24.414Z,7.43
2017-12-17T18:39:58.991Z,6.50
2017-12-17T18:42:33.215Z,7.40
2017-12-17T18:45:07.225Z,7.27
2017-12-17T18:47:41.643Z,7.77
2017-12-17T18:50:18.645Z,7.30
2017-12-17T18:52:52.809Z,7.90
2017-12-17T18:55:26.358Z,8.70
2017-12-17T18:58:00.553Z,7.60
2017-12-17T19:00:34.669Z,7.90
2017-12-17T19:03:09.033Z,7.17
2017-12-17T19:05:46.258Z,7.07
2017-12-17T19:08:20.744Z,7.13
2017-12-17T19:10:54.722Z,7.03
2017-12-17T19:13:28.829Z,7.10
2017-12-17T19:16:02.830Z,7.50
2017-12-17T19:18:37.038Z,7.33
2017-12-17T19:21:10.708Z,6.70
2017-12-17T19:23:44.833Z,9.30
2017-12-17T19:26:18.477Z,8.20
2017-12-17T19:28:52.650Z,9.10
2017-12-17T19:31:26.925Z,9.23
2017-12-17T19:34:01.109Z,8.63
2017-12-17T19:36:35.404Z,9.10
2017-12-17T19:39:09.943Z,7.60
2017-12-17T19:41:43.801Z,8.07
2017-12-17T19:44:14.393Z,8.10
2017-12-17T19:46:44.198Z,8.53
2017-12-17T19:49:14.034Z,7.60
2017-12-17T19:51:44.873Z,8.83
2017-12-17T19:54:14.745Z,8.10
2017-12-17T19:56:44.606Z,7.60
2017-12-17T19:59:14.539Z,7.60
2017-12-17T20:01:44.415Z,7.90
2017-12-17T20:04:15.381Z,8.90
2017-12-17T20:06:47.186Z,7.63
2017-12-17T20:09:17.419Z,7.87
2017-12-17T20:11:47.256Z,7.43
2017-12-17T20:14:17.146Z,8.30
2017-12-17T20:16:46.927Z,6.77
2017-12-17T20:19:16.594Z,6.63
2017-12-17T20:21:46.254Z,7.50
2017-12-17T20:24:15.950Z,7.90
2017-12-17T20:26:45.642Z,7.50
2017-12-17T20:29:15.296Z,7.17
2017-12-17T20:31:45.022Z,7.40
2017-12-17T20:34:14.703Z,7.80
2017-12-17T20:36:48.348Z,6.60
2017-12-17T20:39:18.158Z,7.47
2017-12-17T20:41:48.734Z,7.17
2017-12-17T20:44:18.230Z,6.57
2017-12-17T20:46:48.078Z,7.63
2017-12-17T20:49:17.923Z,7.50
2017-12-17T20:51:47.729Z,6.30
2017-12-17T20:54:17.557Z,7.30
2017-12-17T20:56:47.374Z,6.30
2017-12-17T20:59:17.249Z,6.23
2017-12-17T21:01:47.235Z,7.03
2017-12-17T21:04:17.063Z,6.50
2017-12-17T21:06:46.956Z,6.60
2017-12-17T21:09:16.873Z,5.97
2017-12-17T21:11:46.721Z,6.67
2017-12-17T21:14:16.539Z,6.90
2017-12-17T21:16:46.392Z,6.30
2017-12-17T21:19:16.187Z,5.77
2017-12-17T21:21:46.039Z,6.20
2017-12-17T21:24:15.859Z,6.80
2017-12-17T21:26:45.658Z,7.70
2017-12-17T21:29:15.462Z,7.87
2017-12-17T21:31:45.253Z,7.40
2017-12-17T21:34:15.142Z,6.53
2017-12-17T21:36:44.977Z,8.23
2017-12-17T21:39:14.798Z,7.90
2017-12-17T21:41:44.618Z,6.73
2017-12-17T21:44:14.418Z,7.57
2017-12-17T21:46:44.273Z,8.00
2017-12-17T21:49:14.046Z,8.70
2017-12-17T21:51:43.872Z,6.83
2017-12-17T21:54:13.673Z,7.30
2017-12-17T21:56:43.487Z,8.70
2017-12-17T21:59:13.005Z,6.90
2017-12-17T22:01:42.859Z,7.10
2017-12-17T22:04:12.754Z,7.53
2017-12-17T22:06:42.601Z,7.17
2017-12-17T22:09:12.482Z,7.57
2017-12-17T22:11:42.271Z,8.27
2017-12-17T22:14:11.885Z,7.80
2017-12-17T22:16:41.725Z,9.67
2017-12-17T22:19:11.527Z,8.27
2017-12-17T22:21:41.343Z,7.90
2017-12-17T22:24:13.206Z,8.53
2017-12-17T22:26:43.631Z,8.80
2017-12-17T22:29:13.439Z,9.00
2017-12-17T22:31:43.264Z,8.87
2017-12-17T22:34:13.093Z,9.07
2017-12-17T22:36:42.948Z,8.80
2017-12-17T22:39:12.990Z,8.20
2017-12-17T22:41:43.236Z,9.23
2017-12-17T22:44:13.143Z,10.03
2017-12-17T22:46:43.213Z,9.60
2017-12-17T22:49:13.066Z,10.30
2017-12-17T22:51:42.927Z,10.53
2017-12-17T22:54:13.055Z,8.70
2017-12-17T22:56:42.882Z,10.30
2017-12-17T22:59:12.742Z,9.70
2017-12-17T23:01:42.525Z,9.63
2017-12-17T23:04:12.622Z,9.77
2017-12-17T23:06:42.378Z,9.57
2017-12-17T23:09:12.234Z,11.13
2017-12-17T23:15:03.290Z,10.57
2017-12-17T23:17:51.843Z,8.87
2017-12-17T23:20:28.809Z,11.30
2017-12-17T23:23:04.541Z,12.57
2017-12-17T23:25:37.939Z,10.83
2017-12-17T23:28:14.525Z,12.60
2017-12-17T23:30:47.644Z,11.93
2017-12-17T23:33:21.651Z,12.73
2017-12-17T23:35:53.926Z,11.90
2017-12-17T23:38:28.781Z,10.70
2017-12-17T23:41:01.385Z,12.03
2017-12-17T23:43:33.769Z,12.60
2017-12-17T23:46:07.210Z,12.10
2017-12-17T23:48:40.927Z,12.20
2017-12-17T23:51:23.263Z,12.00
2017-12-17T23:54:08.270Z,11.60
2017-12-17T23:56:47.119Z,13.50
